Time;durP1;ratioP1;P1;durP2;ratioP2;P2;SDS_P1;SDS_P2;PMS_P1;PMS_P2;Temp;Humidity;BMP_temperature;BMP_pressure;BME280_temperature;BME280_humidity;BME280_pressure;Samples;Min_cycle;Max_cycle;Signal;HPM_P1;HPM_P2
2021/12/31 00:02:16;;;;;;;;;;;13.60;88.40;;;;;;5029144;28;20374;-84
2021/12/31 00:04:42;;;;;;;;;;;13.60;88.60;;;;;;5033229;28;19909;-85
2021/12/31 00:07:07;;;;;;;;;;;13.60;88.40;;;;;;5017963;28;19920;-83
2021/12/31 00:09:33;;;;;;;;;;;13.60;88.70;;;;;;5041098;28;19913;-82
2021/12/31 00:11:58;;;;;;;;;;;13.60;88.60;;;;;;5037839;28;19928;-82
2021/12/31 00:14:25;;;;;;;;;;;13.60;88.30;;;;;;5056067;28;19955;-83
2021/12/31 00:16:50;;;;;;;;;;;13.60;88.10;;;;;;5046613;28;19920;-84
2021/12/31 00:19:16;;;;;;;;;;;13.60;88.10;;;;;;5037272;28;20261;-83
2021/12/31 00:21:45;;;;;;;;;;;13.70;87.90;;;;;;5033441;28;19913;-82
2021/12/31 00:24:11;;;;;;;;;;;13.70;88.00;;;;;;5043737;28;19913;-85
2021/12/31 00:26:36;;;;;;;;;;;13.60;87.80;;;;;;5055595;28;20000;-86
2021/12/31 00:29:02;;;;;;;;;;;13.60;88.00;;;;;;5067090;28;19919;-85
2021/12/31 00:31:28;;;;;;;;;;;13.60;88.00;;;;;;5046993;28;19972;-85
2021/12/31 00:33:53;;;;;;;;;;;13.60;87.90;;;;;;5060314;28;19917;-85
2021/12/31 00:36:19;;;;;;;;;;;13.70;87.60;;;;;;5046329;28;20396;-86
2021/12/31 00:38:44;;;;;;;;;;;13.70;87.50;;;;;;5019838;28;19928;-85
2021/12/31 00:41:10;;;;;;;;;;;13.70;87.10;;;;;;5018724;28;19936;-85
2021/12/31 00:43:35;;;;;;;;;;;13.70;86.90;;;;;;5044988;28;20401;-84
2021/12/31 00:46:02;;;;;;;;;;;13.70;86.70;;;;;;5032746;28;19960;-84
2021/12/31 00:48:28;;;;;;;;;;;13.80;86.50;;;;;;5022094;28;19919;-84
2021/12/31 00:50:53;;;;;;;;;;;13.70;86.60;;;;;;5037508;28;19952;-85
2021/12/31 00:53:19;;;;;;;;;;;13.80;86.40;;;;;;5018152;28;19939;-85
2021/12/31 00:55:44;;;;;;;;;;;13.80;86.20;;;;;;5036490;28;19913;-84
2021/12/31 00:58:10;;;;;;;;;;;13.80;86.00;;;;;;5029547;28;19913;-85
2021/12/31 01:00:35;;;;;;;;;;;13.80;85.60;;;;;;5060320;28;19917;-84
2021/12/31 01:03:01;;;;;;;;;;;13.80;85.50;;;;;;5035635;28;19909;-84
2021/12/31 01:05:27;;;;;;;;;;;13.90;85.00;;;;;;5044064;28;19912;-83
2021/12/31 01:07:52;;;;;;;;;;;14.00;84.80;;;;;;5061571;28;19936;-84
2021/12/31 01:10:18;;;;;;;;;;;14.00;84.80;;;;;;5050191;28;19921;-85
2021/12/31 01:12:45;;;;;;;;;;;14.00;84.60;;;;;;5016596;28;19921;-85
2021/12/31 01:15:19;;;;;;;;;;;14.00;84.60;;;;;;5028301;28;19917;-83
2021/12/31 01:20:11;;;;;;;;;;;14.00;84.50;;;;;;5036215;28;20000;-83
2021/12/31 01:22:37;;;;;;;;;;;14.00;84.10;;;;;;5038189;28;20329;-84
2021/12/31 01:25:04;;;;;;;;;;;13.90;84.30;;;;;;5033999;28;19927;-84
2021/12/31 01:27:30;;;;;;;;;;;14.00;83.90;;;;;;5019297;28;19936;-86
2021/12/31 01:29:55;;;;;;;;;;;14.00;83.80;;;;;;5037836;28;19916;-85
2021/12/31 01:32:21;;;;;;;;;;;14.00;83.70;;;;;;5055421;28;19913;-85
2021/12/31 01:34:46;;;;;;;;;;;14.00;83.50;;;;;;5039028;28;19913;-85
2021/12/31 01:37:12;;;;;;;;;;;14.10;83.30;;;;;;5057378;28;19908;-85
2021/12/31 01:39:38;;;;;;;;;;;14.10;83.10;;;;;;5037484;28;19951;-85
2021/12/31 01:42:06;;;;;;;;;;;14.10;83.20;;;;;;5038792;28;19909;-84
2021/12/31 01:44:38;;;;;;;;;;;14.10;82.70;;;;;;5053733;28;19993;-84
2021/12/31 01:47:05;;;;;;;;;;;14.10;82.90;;;;;;5032871;28;20547;-84
2021/12/31 01:49:37;;;;;;;;;;;14.20;82.70;;;;;;5054393;28;19909;-83
2021/12/31 01:52:03;;;;;;;;;;;14.10;82.80;;;;;;5048244;28;20353;-82
2021/12/31 01:54:29;;;;;;;;;;;14.10;83.10;;;;;;5037375;28;19966;-82
2021/12/31 01:56:55;;;;;;;;;;;14.10;83.00;;;;;;5055140;28;19916;-82
2021/12/31 01:59:21;;;;;;;;;;;14.20;82.60;;;;;;5053598;28;20360;-84
2021/12/31 02:01:46;;;;;;;;;;;14.10;82.80;;;;;;5048885;28;19920;-84
2021/12/31 02:04:12;;;;;;;;;;;14.10;83.00;;;;;;5024834;28;19924;-84
2021/12/31 02:06:37;;;;;;;;;;;14.10;83.10;;;;;;5053703;28;19959;-82
2021/12/31 02:09:04;;;;;;;;;;;14.10;82.50;;;;;;5036296;28;19909;-82
2021/12/31 02:11:29;;;;;;;;;;;14.10;82.70;;;;;;5033685;28;19913;-82
2021/12/31 02:13:55;;;;;;;;;;;14.10;82.90;;;;;;5050360;28;19924;-83
2021/12/31 02:16:21;;;;;;;;;;;14.10;82.90;;;;;;5033685;28;19971;-83
2021/12/31 02:18:47;;;;;;;;;;;14.00;82.80;;;;;;5041655;28;19993;-83
2021/12/31 02:21:13;;;;;;;;;;;14.10;82.40;;;;;;5034923;28;19909;-83
2021/12/31 02:23:44;;;;;;;;;;;14.10;82.60;;;;;;5024886;28;20105;-83
2021/12/31 02:26:11;;;;;;;;;;;14.00;82.60;;;;;;5054282;28;19908;-81
2021/12/31 02:28:37;;;;;;;;;;;14.00;82.80;;;;;;5035991;28;19909;-83
2021/12/31 02:31:03;;;;;;;;;;;14.10;82.60;;;;;;5034519;28;19920;-82
2021/12/31 02:33:30;;;;;;;;;;;14.10;82.60;;;;;;5050583;28;20004;-84
2021/12/31 02:35:56;;;;;;;;;;;14.00;82.70;;;;;;5047650;28;19986;-83
2021/12/31 02:38:21;;;;;;;;;;;14.10;82.40;;;;;;5033311;28;20346;-82
2021/12/31 02:40:47;;;;;;;;;;;14.10;82.60;;;;;;5053204;28;19924;-82
2021/12/31 02:43:13;;;;;;;;;;;14.00;82.60;;;;;;5053230;28;20319;-82
2021/12/31 02:45:40;;;;;;;;;;;14.10;82.20;;;;;;5034838;28;20031;-84
2021/12/31 02:48:06;;;;;;;;;;;14.10;82.60;;;;;;5037079;28;19913;-84
2021/12/31 02:50:34;;;;;;;;;;;14.00;82.50;;;;;;5043393;28;19921;-83
2021/12/31 02:53:04;;;;;;;;;;;14.10;82.10;;;;;;5016425;28;19948;-83
2021/12/31 02:55:32;;;;;;;;;;;14.10;81.90;;;;;;5025661;28;20092;-83
2021/12/31 02:57:58;;;;;;;;;;;14.10;82.10;;;;;;5054134;28;19908;-83
2021/12/31 03:00:24;;;;;;;;;;;14.10;81.80;;;;;;5052446;28;20319;-82
2021/12/31 03:02:50;;;;;;;;;;;14.10;82.10;;;;;;5053959;28;19908;-82
2021/12/31 03:05:16;;;;;;;;;;;14.10;81.70;;;;;;5053304;28;19912;-83
2021/12/31 03:07:43;;;;;;;;;;;14.10;81.90;;;;;;5033211;28;19952;-82
2021/12/31 03:10:09;;;;;;;;;;;14.10;82.00;;;;;;5035104;28;19955;-83
2021/12/31 03:12:36;;;;;;;;;;;14.00;82.00;;;;;;5053632;28;19920;-83
2021/12/31 03:15:02;;;;;;;;;;;14.10;82.00;;;;;;5053554;28;19924;-82
2021/12/31 03:17:29;;;;;;;;;;;14.10;81.30;;;;;;5034790;28;19916;-82
2021/12/31 03:20:07;;;;;;;;;;;14.10;81.10;;;;;;5035711;28;19917;-82
2021/12/31 03:22:32;;;;;;;;;;;14.20;80.90;;;;;;5033216;28;19908;-83
2021/12/31 03:24:58;;;;;;;;;;;14.10;81.40;;;;;;5031574;28;19913;-81
2021/12/31 03:27:23;;;;;;;;;;;14.10;81.50;;;;;;5036825;28;19916;-83
2021/12/31 03:29:49;;;;;;;;;;;14.10;81.10;;;;;;5054137;28;19956;-83
2021/12/31 03:32:14;;;;;;;;;;;14.10;81.10;;;;;;5056688;28;19909;-81
2021/12/31 03:34:40;;;;;;;;;;;14.10;81.20;;;;;;5037997;28;19960;-84
2021/12/31 03:37:05;;;;;;;;;;;14.10;80.90;;;;;;5038175;28;19913;-84
2021/12/31 03:39:30;;;;;;;;;;;14.30;79.90;;;;;;5038574;28;19955;-82
2021/12/31 03:41:56;;;;;;;;;;;14.30;79.90;;;;;;5036725;28;19920;-83
2021/12/31 03:44:21;;;;;;;;;;;14.30;80.10;;;;;;5036162;28;20349;-82
2021/12/31 03:46:47;;;;;;;;;;;14.20;80.00;;;;;;5036752;28;19909;-83
2021/12/31 03:49:12;;;;;;;;;;;14.30;79.90;;;;;;5034930;28;20349;-83
2021/12/31 03:51:38;;;;;;;;;;;14.20;80.10;;;;;;5035642;28;19919;-83
2021/12/31 03:54:03;;;;;;;;;;;14.30;79.70;;;;;;5035107;28;19913;-82
2021/12/31 03:56:31;;;;;;;;;;;14.30;79.20;;;;;;5049396;28;19996;-82
2021/12/31 03:58:59;;;;;;;;;;;14.30;79.30;;;;;;5016043;28;19913;-80
2021/12/31 04:01:25;;;;;;;;;;;14.30;79.10;;;;;;5054081;28;20325;-84
2021/12/31 04:03:50;;;;;;;;;;;14.30;79.30;;;;;;5029495;28;20349;-84
2021/12/31 04:06:16;;;;;;;;;;;14.30;79.20;;;;;;5017431;28;19969;-84
2021/12/31 04:08:42;;;;;;;;;;;14.30;79.40;;;;;;5034650;28;20020;-82
2021/12/31 04:11:10;;;;;;;;;;;14.30;79.60;;;;;;5025149;28;20226;-84
2021/12/31 04:13:35;;;;;;;;;;;14.20;79.60;;;;;;5027228;28;20365;-83
2021/12/31 04:16:01;;;;;;;;;;;14.20;79.90;;;;;;5039177;28;19947;-83
2021/12/31 04:18:26;;;;;;;;;;;14.20;79.70;;;;;;5036246;28;19955;-84
2021/12/31 04:20:55;;;;;;;;;;;14.20;79.50;;;;;;5055393;28;20388;-83
2021/12/31 04:23:36;;;;;;;;;;;14.20;79.90;;;;;;5054051;28;19948;-84
2021/12/31 04:26:02;;;;;;;;;;;14.10;79.90;;;;;;5055830;28;20091;-84
2021/12/31 04:28:28;;;;;;;;;;;14.30;79.30;;;;;;5054867;28;20019;-83
2021/12/31 04:30:54;;;;;;;;;;;14.20;79.40;;;;;;5055897;28;20288;-84
2021/12/31 04:33:20;;;;;;;;;;;14.20;79.50;;;;;;5041310;28;19913;-83
2021/12/31 04:35:46;;;;;;;;;;;14.20;79.30;;;;;;5039438;28;19952;-83
2021/12/31 04:38:11;;;;;;;;;;;14.10;79.60;;;;;;5036976;28;20384;-84
2021/12/31 04:40:37;;;;;;;;;;;14.10;79.40;;;;;;5038442;28;19963;-83
2021/12/31 04:43:02;;;;;;;;;;;14.10;79.80;;;;;;5036687;28;19920;-84
2021/12/31 04:45:28;;;;;;;;;;;14.10;79.80;;;;;;5038438;28;19920;-81
2021/12/31 04:47:53;;;;;;;;;;;14.20;79.60;;;;;;5030631;28;19909;-82
2021/12/31 04:50:19;;;;;;;;;;;14.10;79.90;;;;;;5060838;28;19954;-82
2021/12/31 04:52:44;;;;;;;;;;;14.20;79.70;;;;;;5045299;28;19921;-83
2021/12/31 04:55:11;;;;;;;;;;;14.10;79.90;;;;;;5052342;28;19912;-83
2021/12/31 04:57:36;;;;;;;;;;;14.00;80.20;;;;;;5053366;28;19957;-84
2021/12/31 05:00:02;;;;;;;;;;;14.00;80.30;;;;;;5034202;28;20291;-83
2021/12/31 05:02:28;;;;;;;;;;;14.00;80.20;;;;;;5034313;28;20011;-83
2021/12/31 05:04:53;;;;;;;;;;;14.10;79.80;;;;;;5034695;28;20385;-81
2021/12/31 05:07:19;;;;;;;;;;;14.00;79.90;;;;;;5033891;28;19968;-83
2021/12/31 05:09:44;;;;;;;;;;;14.00;80.60;;;;;;5034251;28;19909;-83
2021/12/31 05:12:14;;;;;;;;;;;14.00;80.20;;;;;;5033659;28;20285;-82
2021/12/31 05:14:41;;;;;;;;;;;14.10;80.40;;;;;;5034193;28;19932;-80
2021/12/31 05:17:06;;;;;;;;;;;14.00;80.20;;;;;;5030215;28;19921;-81
2021/12/31 05:19:32;;;;;;;;;;;14.00;80.20;;;;;;5014128;28;19909;-82
2021/12/31 05:21:57;;;;;;;;;;;14.00;79.90;;;;;;5032954;28;19960;-82
2021/12/31 05:24:22;;;;;;;;;;;14.10;80.00;;;;;;5039471;28;19909;-83
2021/12/31 05:26:48;;;;;;;;;;;14.00;80.00;;;;;;5033582;28;20269;-83
2021/12/31 05:29:13;;;;;;;;;;;13.90;80.20;;;;;;5027369;28;19905;-80
2021/12/31 05:31:39;;;;;;;;;;;14.00;80.30;;;;;;5050299;28;19905;-80
2021/12/31 05:34:04;;;;;;;;;;;14.10;79.80;;;;;;5037728;28;19981;-81
2021/12/31 05:36:30;;;;;;;;;;;14.00;80.30;;;;;;5063089;28;19913;-83
2021/12/31 05:38:55;;;;;;;;;;;14.00;79.90;;;;;;5036434;28;19973;-81
2021/12/31 05:41:21;;;;;;;;;;;14.00;80.40;;;;;;5026057;28;19909;-83
2021/12/31 05:43:46;;;;;;;;;;;13.90;80.10;;;;;;5037816;28;20184;-83
2021/12/31 05:46:12;;;;;;;;;;;14.00;80.40;;;;;;5041361;28;20388;-81
2021/12/31 05:48:37;;;;;;;;;;;13.90;80.40;;;;;;5043814;28;19992;-81
2021/12/31 05:51:03;;;;;;;;;;;13.80;80.40;;;;;;5023541;28;19976;-83
2021/12/31 05:53:29;;;;;;;;;;;13.80;80.80;;;;;;5039270;28;19974;-82
2021/12/31 05:55:54;;;;;;;;;;;13.80;81.20;;;;;;5039665;28;20292;-82
2021/12/31 05:58:19;;;;;;;;;;;13.80;80.90;;;;;;5021556;28;20382;-80
2021/12/31 06:00:45;;;;;;;;;;;13.90;81.00;;;;;;5033773;28;20003;-82
2021/12/31 06:03:10;;;;;;;;;;;14.00;80.80;;;;;;5058766;28;19943;-82
2021/12/31 06:05:36;;;;;;;;;;;13.90;80.90;;;;;;5039282;28;19976;-81
2021/12/31 06:08:02;;;;;;;;;;;13.90;80.50;;;;;;5032858;28;19913;-82
2021/12/31 06:10:28;;;;;;;;;;;13.90;80.60;;;;;;5018878;28;19920;-83
2021/12/31 06:12:57;;;;;;;;;;;13.80;80.90;;;;;;5041925;28;19973;-82
2021/12/31 06:15:22;;;;;;;;;;;13.80;80.80;;;;;;5038916;28;19995;-81
2021/12/31 06:17:49;;;;;;;;;;;13.80;80.40;;;;;;5050825;28;20351;-83
2021/12/31 06:20:14;;;;;;;;;;;13.80;80.30;;;;;;5039904;28;20372;-81
2021/12/31 06:22:40;;;;;;;;;;;13.80;80.60;;;;;;5052122;28;19908;-83
2021/12/31 06:25:06;;;;;;;;;;;13.70;80.90;;;;;;5056109;28;19928;-83
2021/12/31 06:27:31;;;;;;;;;;;13.80;80.80;;;;;;5055662;28;19965;-82
2021/12/31 06:29:57;;;;;;;;;;;13.80;81.10;;;;;;5036504;28;19909;-82
2021/12/31 06:32:22;;;;;;;;;;;13.80;81.10;;;;;;5035163;28;19913;-82
2021/12/31 06:34:48;;;;;;;;;;;13.90;80.70;;;;;;5040838;28;19936;-82
2021/12/31 06:37:13;;;;;;;;;;;13.90;80.90;;;;;;5025992;28;19910;-82
2021/12/31 06:39:41;;;;;;;;;;;13.90;80.20;;;;;;5037001;28;19924;-82
2021/12/31 06:42:07;;;;;;;;;;;13.90;80.40;;;;;;5032260;28;19912;-82
2021/12/31 06:44:36;;;;;;;;;;;14.00;79.80;;;;;;5056028;28;19909;-82
2021/12/31 06:47:03;;;;;;;;;;;13.90;79.90;;;;;;5035963;28;19931;-81
2021/12/31 06:49:29;;;;;;;;;;;13.90;80.00;;;;;;5057602;28;19925;-81
2021/12/31 06:51:54;;;;;;;;;;;13.90;79.70;;;;;;5051465;28;19921;-82
2021/12/31 06:54:20;;;;;;;;;;;13.90;79.70;;;;;;5037144;28;19913;-81
2021/12/31 06:56:45;;;;;;;;;;;13.80;79.70;;;;;;5046357;28;19913;-83
2021/12/31 06:59:11;;;;;;;;;;;13.90;79.60;;;;;;5056791;28;20007;-82
2021/12/31 07:01:36;;;;;;;;;;;13.80;79.90;;;;;;5040529;28;19968;-82
2021/12/31 07:04:02;;;;;;;;;;;13.90;79.30;;;;;;5028184;28;19910;-81
2021/12/31 07:06:27;;;;;;;;;;;13.80;79.80;;;;;;5019494;28;19940;-83
2021/12/31 07:08:53;;;;;;;;;;;13.70;80.10;;;;;;5024893;28;19908;-82
2021/12/31 07:11:21;;;;;;;;;;;13.90;79.90;;;;;;5039748;28;19927;-80
2021/12/31 07:13:48;;;;;;;;;;;13.80;80.10;;;;;;5040497;28;19920;-82
2021/12/31 07:16:13;;;;;;;;;;;13.80;79.80;;;;;;5030560;28;20007;-81
2021/12/31 07:18:38;;;;;;;;;;;13.80;80.00;;;;;;5020422;28;19948;-80
2021/12/31 07:21:04;;;;;;;;;;;13.80;80.30;;;;;;5028810;28;19909;-84
2021/12/31 07:23:29;;;;;;;;;;;13.80;80.10;;;;;;5039304;28;20405;-82
2021/12/31 07:25:55;;;;;;;;;;;13.70;80.40;;;;;;5046207;28;19984;-81
2021/12/31 07:28:20;;;;;;;;;;;13.80;80.50;;;;;;5041520;28;19909;-82
2021/12/31 07:30:46;;;;;;;;;;;13.70;80.40;;;;;;5051310;28;20349;-83
2021/12/31 07:33:21;;;;;;;;;;;13.70;80.40;;;;;;5042869;28;19980;-82
2021/12/31 07:35:47;;;;;;;;;;;13.60;80.20;;;;;;5047700;28;19924;-83
2021/12/31 07:38:20;;;;;;;;;;;13.60;80.50;;;;;;5035102;28;19909;-82
2021/12/31 07:40:46;;;;;;;;;;;13.60;80.60;;;;;;5026994;28;19912;-82
2021/12/31 07:43:12;;;;;;;;;;;13.60;80.80;;;;;;5054057;28;19935;-82
2021/12/31 07:45:38;;;;;;;;;;;13.50;81.10;;;;;;5024603;28;19913;-81
2021/12/31 07:48:04;;;;;;;;;;;13.50;81.10;;;;;;5054699;28;20031;-81
2021/12/31 07:50:30;;;;;;;;;;;13.50;81.10;;;;;;5048365;28;20003;-83
2021/12/31 07:52:55;;;;;;;;;;;13.50;81.20;;;;;;5037660;28;20276;-83
2021/12/31 07:55:21;;;;;;;;;;;13.40;81.20;;;;;;5031384;28;19924;-83
2021/12/31 07:57:46;;;;;;;;;;;13.50;81.10;;;;;;5018874;28;19937;-83
2021/12/31 08:00:12;;;;;;;;;;;13.40;81.10;;;;;;5019375;28;19909;-81
2021/12/31 08:02:38;;;;;;;;;;;13.40;81.40;;;;;;5037796;28;19916;-83
2021/12/31 08:05:04;;;;;;;;;;;13.40;81.40;;;;;;5056447;28;20353;-83
2021/12/31 08:07:29;;;;;;;;;;;13.30;81.30;;;;;;5031054;28;20262;-82
2021/12/31 08:09:55;;;;;;;;;;;13.30;81.40;;;;;;5038951;28;20325;-82
2021/12/31 08:12:20;;;;;;;;;;;13.30;81.40;;;;;;5056264;28;19913;-83
2021/12/31 08:14:46;;;;;;;;;;;13.40;81.10;;;;;;5038851;28;19917;-82
2021/12/31 08:17:11;;;;;;;;;;;13.40;81.10;;;;;;5042150;28;19920;-83
2021/12/31 08:19:37;;;;;;;;;;;13.50;81.10;;;;;;5033248;28;20472;-83
2021/12/31 08:22:02;;;;;;;;;;;13.50;81.20;;;;;;5038318;28;19910;-83
2021/12/31 08:24:28;;;;;;;;;;;13.40;81.10;;;;;;5042880;28;20230;-83
2021/12/31 08:26:53;;;;;;;;;;;13.40;81.20;;;;;;5045440;28;20385;-81
2021/12/31 08:29:19;;;;;;;;;;;13.30;81.30;;;;;;5042994;28;19924;-82
2021/12/31 08:31:44;;;;;;;;;;;13.30;80.90;;;;;;5067859;28;19958;-80
2021/12/31 08:34:12;;;;;;;;;;;13.30;81.30;;;;;;5042040;28;19918;-80
2021/12/31 08:36:38;;;;;;;;;;;13.30;81.20;;;;;;5031956;28;19909;-80
2021/12/31 08:39:05;;;;;;;;;;;13.30;81.30;;;;;;5042634;28;19956;-83
2021/12/31 08:41:30;;;;;;;;;;;13.30;81.20;;;;;;5063113;28;20001;-83
2021/12/31 08:43:56;;;;;;;;;;;13.30;81.20;;;;;;5049479;28;19916;-80
2021/12/31 08:46:21;;;;;;;;;;;13.20;81.20;;;;;;5038158;28;19913;-81
2021/12/31 08:48:47;;;;;;;;;;;13.30;81.30;;;;;;5052708;28;19917;-80
2021/12/31 08:51:12;;;;;;;;;;;13.30;80.90;;;;;;5036553;28;19913;-81
2021/12/31 08:53:38;;;;;;;;;;;13.30;80.70;;;;;;5039822;28;20460;-83
2021/12/31 08:56:04;;;;;;;;;;;13.30;81.10;;;;;;5029622;28;19909;-83
2021/12/31 08:58:29;;;;;;;;;;;13.30;80.90;;;;;;5049029;28;20215;-82
2021/12/31 09:00:54;;;;;;;;;;;13.30;80.90;;;;;;5020727;28;19909;-82
2021/12/31 09:03:20;;;;;;;;;;;13.30;81.10;;;;;;5030788;28;20345;-84
2021/12/31 09:05:45;;;;;;;;;;;13.30;80.90;;;;;;5059158;28;19935;-83
2021/12/31 09:08:11;;;;;;;;;;;13.30;80.70;;;;;;5042364;28;19919;-80
2021/12/31 09:10:36;;;;;;;;;;;13.50;80.60;;;;;;5054638;28;20231;-83
2021/12/31 09:13:02;;;;;;;;;;;13.50;80.60;;;;;;5039154;28;19920;-83
2021/12/31 09:15:27;;;;;;;;;;;13.50;79.90;;;;;;5042129;28;20314;-83
2021/12/31 09:17:55;;;;;;;;;;;13.50;80.00;;;;;;5059720;28;20380;-81
2021/12/31 09:20:21;;;;;;;;;;;13.50;80.10;;;;;;5058323;28;19979;-82
2021/12/31 09:22:46;;;;;;;;;;;13.50;79.90;;;;;;5039993;28;20346;-82
2021/12/31 09:25:12;;;;;;;;;;;13.60;80.00;;;;;;5040255;28;19952;-82
2021/12/31 09:27:37;;;;;;;;;;;13.50;80.00;;;;;;5040410;28;20006;-82
2021/12/31 09:30:03;;;;;;;;;;;13.60;80.00;;;;;;5055512;28;19909;-83
2021/12/31 09:32:29;;;;;;;;;;;13.60;79.90;;;;;;5020685;28;19909;-82
2021/12/31 09:34:54;;;;;;;;;;;13.60;79.90;;;;;;5038022;28;19916;-82
2021/12/31 09:37:20;;;;;;;;;;;13.60;79.30;;;;;;5042695;28;19913;-81
2021/12/31 09:39:46;;;;;;;;;;;13.60;79.70;;;;;;5057989;28;20020;-84
2021/12/31 09:42:12;;;;;;;;;;;13.60;79.60;;;;;;5040734;28;20539;-83
2021/12/31 09:44:37;;;;;;;;;;;13.60;79.30;;;;;;5020154;28;19909;-83
2021/12/31 09:47:10;;;;;;;;;;;13.70;79.60;;;;;;5038268;28;19909;-83
2021/12/31 09:49:36;;;;;;;;;;;13.60;79.20;;;;;;5039204;28;20429;-83
2021/12/31 09:52:02;;;;;;;;;;;13.60;79.60;;;;;;5047624;28;19913;-83
2021/12/31 09:54:27;;;;;;;;;;;13.70;79.30;;;;;;5035427;28;19957;-82
2021/12/31 09:56:53;;;;;;;;;;;13.70;78.90;;;;;;5037936;28;19917;-83
2021/12/31 09:59:19;;;;;;;;;;;13.80;78.90;;;;;;5037317;28;19917;-82
2021/12/31 10:01:49;;;;;;;;;;;13.70;78.90;;;;;;5057328;28;20004;-82
2021/12/31 10:04:14;;;;;;;;;;;13.80;78.70;;;;;;5040172;28;19986;-82
2021/12/31 10:06:58;;;;;;;;;;;13.80;78.30;;;;;;5027250;28;19913;-83
2021/12/31 10:09:24;;;;;;;;;;;13.70;78.80;;;;;;5037266;28;19909;-82
2021/12/31 10:11:49;;;;;;;;;;;13.70;78.70;;;;;;5051129;28;19940;-81
2021/12/31 10:14:15;;;;;;;;;;;13.70;78.80;;;;;;5038954;28;19931;-82
2021/12/31 10:16:40;;;;;;;;;;;13.70;78.50;;;;;;5038274;28;19912;-82
2021/12/31 10:19:10;;;;;;;;;;;13.70;78.40;;;;;;5057446;28;19946;-83
2021/12/31 10:21:38;;;;;;;;;;;13.70;78.60;;;;;;5042534;28;20579;-83
2021/12/31 10:24:17;;;;;;;;;;;13.70;78.80;;;;;;5034153;28;20039;-83
2021/12/31 10:26:43;;;;;;;;;;;13.70;78.90;;;;;;5038289;28;19909;-84
2021/12/31 10:29:08;;;;;;;;;;;13.70;78.60;;;;;;5053375;28;19916;-83
2021/12/31 10:31:40;;;;;;;;;;;13.70;78.70;;;;;;5037606;28;19921;-82
2021/12/31 10:34:06;;;;;;;;;;;13.70;78.80;;;;;;5056032;28;19963;-81
2021/12/31 10:36:32;;;;;;;;;;;13.60;79.50;;;;;;5041858;28;19909;-83
2021/12/31 10:39:14;;;;;;;;;;;13.80;78.60;;;;;;5056565;28;19993;-80
2021/12/31 10:41:39;;;;;;;;;;;13.80;78.40;;;;;;5042310;28;20055;-83
2021/12/31 10:44:05;;;;;;;;;;;13.80;78.70;;;;;;5037604;28;19971;-83
2021/12/31 10:46:30;;;;;;;;;;;13.80;78.60;;;;;;5039199;28;19908;-80
2021/12/31 10:48:58;;;;;;;;;;;13.80;78.50;;;;;;5037496;28;19913;-82
2021/12/31 10:51:39;;;;;;;;;;;13.80;78.10;;;;;;5020635;28;20446;-81
2021/12/31 10:57:08;;;;;;;;;;;14.00;78.10;;;;;;5054578;28;19956;-80
2021/12/31 10:59:37;;;;;;;;;;;13.90;78.20;;;;;;5037350;28;19902;-80
2021/12/31 11:02:06;;;;;;;;;;;13.90;78.30;;;;;;5060041;28;19912;-83
2021/12/31 11:04:33;;;;;;;;;;;13.90;78.10;;;;;;5021019;28;19923;-81
2021/12/31 11:06:59;;;;;;;;;;;13.90;78.20;;;;;;5041085;28;19981;-84
2021/12/31 11:09:25;;;;;;;;;;;13.90;78.10;;;;;;5045371;28;19913;-83
2021/12/31 11:11:52;;;;;;;;;;;14.00;77.80;;;;;;5042152;28;19908;-82
2021/12/31 11:14:18;;;;;;;;;;;14.00;77.50;;;;;;5060491;28;19975;-82
2021/12/31 11:16:43;;;;;;;;;;;14.00;77.60;;;;;;5066394;28;19908;-82
2021/12/31 11:19:12;;;;;;;;;;;14.10;77.30;;;;;;5048975;28;19920;-83
2021/12/31 11:21:38;;;;;;;;;;;14.00;77.00;;;;;;5072440;28;19905;-81
2021/12/31 11:24:22;;;;;;;;;;;14.00;77.60;;;;;;5071564;28;19901;-82
2021/12/31 11:26:47;;;;;;;;;;;14.00;77.60;;;;;;5053338;28;19976;-81
2021/12/31 11:29:13;;;;;;;;;;;14.00;77.50;;;;;;5051419;28;19957;-80
2021/12/31 11:31:40;;;;;;;;;;;13.90;78.00;;;;;;5070023;28;19907;-81
2021/12/31 11:34:08;;;;;;;;;;;14.00;77.80;;;;;;5047959;28;19913;-83
2021/12/31 11:36:40;;;;;;;;;;;14.00;77.80;;;;;;5061363;28;20019;-81
2021/12/31 11:39:13;;;;;;;;;;;14.00;77.40;;;;;;5038698;28;19909;-83
2021/12/31 11:41:40;;;;;;;;;;;13.90;77.80;;;;;;5039962;28;20292;-81
2021/12/31 11:44:09;;;;;;;;;;;13.90;77.70;;;;;;5057105;28;19935;-83
2021/12/31 11:46:42;;;;;;;;;;;14.00;77.60;;;;;;5040314;28;20043;-83
2021/12/31 11:49:08;;;;;;;;;;;14.00;77.30;;;;;;5039379;28;19961;-83
2021/12/31 11:51:35;;;;;;;;;;;14.10;77.40;;;;;;5041656;28;19991;-82
2021/12/31 11:54:01;;;;;;;;;;;14.10;77.60;;;;;;5041186;28;19965;-81
2021/12/31 11:56:35;;;;;;;;;;;14.10;77.60;;;;;;5058218;28;19909;-83
2021/12/31 11:59:16;;;;;;;;;;;14.00;78.10;;;;;;5057691;28;19916;-82
2021/12/31 12:01:51;;;;;;;;;;;14.10;77.30;;;;;;5038661;28;19909;-83
2021/12/31 12:04:22;;;;;;;;;;;14.10;76.90;;;;;;5039899;28;19916;-83
2021/12/31 12:06:52;;;;;;;;;;;14.20;76.70;;;;;;5041247;28;19952;-81
2021/12/31 12:09:18;;;;;;;;;;;14.20;76.80;;;;;;5056089;28;19909;-81
2021/12/31 12:12:03;;;;;;;;;;;14.20;76.70;;;;;;5041036;28;19961;-83
2021/12/31 12:14:40;;;;;;;;;;;14.20;77.00;;;;;;5060420;28;19952;-82
2021/12/31 12:17:10;;;;;;;;;;;14.20;76.90;;;;;;5040115;28;19952;-82
2021/12/31 12:19:50;;;;;;;;;;;14.30;76.60;;;;;;5041981;28;19969;-83
2021/12/31 12:22:34;;;;;;;;;;;14.20;76.40;;;;;;5061661;28;19913;-81
2021/12/31 12:25:01;;;;;;;;;;;14.30;76.40;;;;;;5061514;28;19968;-82
2021/12/31 12:27:27;;;;;;;;;;;14.30;76.30;;;;;;5055274;28;19966;-83
2021/12/31 12:29:53;;;;;;;;;;;14.30;76.40;;;;;;5045102;28;19913;-82
2021/12/31 12:32:30;;;;;;;;;;;14.20;76.10;;;;;;5047956;28;19913;-82
2021/12/31 12:34:56;;;;;;;;;;;14.20;76.30;;;;;;5025902;28;19981;-80
2021/12/31 12:37:29;;;;;;;;;;;14.20;76.50;;;;;;5041828;28;19909;-83
2021/12/31 12:39:58;;;;;;;;;;;14.30;76.60;;;;;;5044689;28;19912;-83
2021/12/31 12:42:23;;;;;;;;;;;14.30;76.40;;;;;;5041440;28;19916;-81
2021/12/31 12:45:02;;;;;;;;;;;14.30;76.30;;;;;;5056308;28;19909;-81
2021/12/31 12:47:28;;;;;;;;;;;14.30;76.70;;;;;;5024852;28;19913;-81
2021/12/31 12:49:54;;;;;;;;;;;14.30;76.40;;;;;;5039493;28;19962;-81
2021/12/31 12:52:20;;;;;;;;;;;14.30;76.40;;;;;;5025553;28;19917;-81
2021/12/31 12:54:46;;;;;;;;;;;14.40;76.30;;;;;;5022805;28;19996;-81
2021/12/31 12:57:11;;;;;;;;;;;14.40;76.20;;;;;;5019808;28;19995;-80
2021/12/31 12:59:37;;;;;;;;;;;14.40;76.00;;;;;;5035725;28;19943;-81
2021/12/31 13:02:03;;;;;;;;;;;14.50;76.10;;;;;;5037777;28;19908;-81
2021/12/31 13:04:29;;;;;;;;;;;14.60;75.90;;;;;;5023021;28;19913;-80
2021/12/31 13:07:00;;;;;;;;;;;14.50;76.10;;;;;;5051425;28;19921;-81
2021/12/31 13:09:32;;;;;;;;;;;14.50;75.80;;;;;;5042355;28;19916;-82
2021/12/31 13:11:59;;;;;;;;;;;14.50;75.80;;;;;;5060126;28;19909;-81
2021/12/31 13:14:28;;;;;;;;;;;14.40;76.10;;;;;;5025019;28;19917;-82
2021/12/31 13:16:55;;;;;;;;;;;14.30;76.30;;;;;;5057629;28;19917;-81
2021/12/31 13:19:28;;;;;;;;;;;14.30;76.50;;;;;;5058831;28;19909;-80
2021/12/31 13:21:58;;;;;;;;;;;14.30;76.10;;;;;;5037403;28;20413;-83
2021/12/31 13:24:24;;;;;;;;;;;14.30;76.40;;;;;;5053831;28;19920;-82
2021/12/31 13:26:51;;;;;;;;;;;14.20;76.20;;;;;;5042639;28;20380;-83
2021/12/31 13:29:28;;;;;;;;;;;14.10;76.90;;;;;;5042731;28;19921;-83
2021/12/31 13:32:03;;;;;;;;;;;14.10;77.20;;;;;;5056844;28;19913;-80
2021/12/31 13:34:37;;;;;;;;;;;14.10;76.90;;;;;;5039463;28;19913;-80
2021/12/31 13:37:04;;;;;;;;;;;14.10;77.10;;;;;;5034642;28;19955;-81
2021/12/31 13:39:31;;;;;;;;;;;14.10;77.20;;;;;;5017316;28;19920;-80
2021/12/31 13:42:04;;;;;;;;;;;14.10;77.20;;;;;;5053420;28;19913;-81
2021/12/31 13:44:29;;;;;;;;;;;14.10;77.30;;;;;;5037052;28;19913;-81
2021/12/31 13:47:00;;;;;;;;;;;14.10;76.90;;;;;;5037048;28;19962;-80
2021/12/31 13:49:25;;;;;;;;;;;14.20;77.20;;;;;;5026773;28;19914;-81
2021/12/31 13:51:51;;;;;;;;;;;14.30;77.00;;;;;;5047028;28;19923;-81
2021/12/31 13:54:17;;;;;;;;;;;14.30;77.00;;;;;;5037204;28;19917;-81
2021/12/31 13:56:43;;;;;;;;;;;14.30;77.00;;;;;;5042994;28;19978;-81
2021/12/31 13:59:14;;;;;;;;;;;14.40;76.70;;;;;;5028642;28;19913;-81
2021/12/31 14:01:42;;;;;;;;;;;14.40;76.30;;;;;;5053080;28;19924;-81
2021/12/31 14:04:10;;;;;;;;;;;14.50;76.40;;;;;;5026287;28;19974;-81
2021/12/31 14:06:38;;;;;;;;;;;14.50;76.40;;;;;;5045207;28;20361;-81
2021/12/31 14:09:03;;;;;;;;;;;14.50;76.70;;;;;;5035543;28;20043;-82
2021/12/31 14:11:29;;;;;;;;;;;14.50;76.40;;;;;;5033023;28;20357;-81
2021/12/31 14:13:54;;;;;;;;;;;14.50;76.30;;;;;;5046841;28;19925;-81
2021/12/31 14:16:20;;;;;;;;;;;14.40;77.80;;;;;;5042771;28;19988;-81
2021/12/31 14:18:45;;;;;;;;;;;14.30;78.10;;;;;;5016281;28;19925;-82
2021/12/31 14:21:11;;;;;;;;;;;14.10;80.10;;;;;;5045366;28;20277;-82